createdAt,value
2018-04-13T00:02:18.384Z,8.10
2018-04-13T00:04:46.665Z,8.00
2018-04-13T00:07:14.147Z,8.00
2018-04-13T00:09:41.648Z,8.00
2018-04-13T00:12:09.144Z,8.00
2018-04-13T00:14:36.670Z,7.90
2018-04-13T00:17:04.949Z,7.90
2018-04-13T00:19:32.504Z,7.90
2018-04-13T00:22:00.813Z,7.80
2018-04-13T00:24:29.100Z,7.80
2018-04-13T00:26:57.535Z,7.80
2018-04-13T00:29:25.020Z,7.80
2018-04-13T00:31:52.504Z,7.70
2018-04-13T00:34:20.020Z,7.70
2018-04-13T00:36:48.309Z,7.60
2018-04-13T00:39:16.716Z,7.60
2018-04-13T00:41:44.195Z,7.60
2018-04-13T00:44:11.774Z,7.50
2018-04-13T00:46:40.022Z,7.50
2018-04-13T00:49:08.308Z,7.50
2018-04-13T00:51:35.846Z,7.50
2018-04-13T00:54:03.325Z,7.50
2018-04-13T00:56:30.883Z,7.50
2018-04-13T00:58:58.369Z,7.40
2018-04-13T01:01:25.844Z,7.30
2018-04-13T01:03:53.353Z,7.20
2018-04-13T01:06:20.851Z,7.20
2018-04-13T01:08:48.355Z,7.20
2018-04-13T01:11:15.877Z,7.20
2018-04-13T01:13:43.361Z,7.30
2018-04-13T01:16:10.841Z,7.30
2018-04-13T01:18:38.378Z,7.30
2018-04-13T01:21:05.856Z,7.30
2018-04-13T01:23:33.362Z,7.30
2018-04-13T01:26:00.879Z,7.30
2018-04-13T01:28:29.134Z,7.20
2018-04-13T01:30:56.648Z,7.10
2018-04-13T01:33:24.176Z,7.20
2018-04-13T01:35:51.663Z,7.10
2018-04-13T01:38:19.177Z,7.10
2018-04-13T01:40:46.704Z,7.10
2018-04-13T01:43:14.198Z,7.00
2018-04-13T01:45:41.712Z,7.00
2018-04-13T01:48:09.209Z,7.00
2018-04-13T01:50:36.744Z,7.00
2018-04-13T01:53:04.230Z,7.00
2018-04-13T01:55:31.818Z,7.10
2018-04-13T01:57:59.326Z,7.10
2018-04-13T02:00:26.837Z,7.00
2018-04-13T02:02:54.358Z,7.00
2018-04-13T02:05:22.803Z,6.90
2018-04-13T02:07:50.310Z,6.90
2018-04-13T02:10:17.801Z,6.90
2018-04-13T02:12:45.344Z,7.00
2018-04-13T02:15:12.859Z,7.00
2018-04-13T02:17:40.353Z,7.00
2018-04-13T02:20:07.897Z,7.00
2018-04-13T02:22:35.395Z,7.00
2018-04-13T02:25:02.927Z,7.10
2018-04-13T02:27:30.500Z,7.10
2018-04-13T02:29:58.794Z,7.00
2018-04-13T02:32:27.084Z,7.00
2018-04-13T02:34:55.369Z,6.90
2018-04-13T02:37:23.673Z,6.70
2018-04-13T02:39:51.202Z,6.60
2018-04-13T02:42:18.737Z,6.50
2018-04-13T02:44:46.860Z,6.30
2018-04-13T02:47:16.057Z,5.60
2018-04-13T02:49:43.660Z,5.60
2018-04-13T02:52:11.271Z,5.70
2018-04-13T02:54:38.786Z,5.70
2018-04-13T02:57:06.335Z,5.80
2018-04-13T02:59:33.855Z,5.80
2018-04-13T03:02:01.428Z,5.90
2018-04-13T03:04:29.222Z,5.90
2018-04-13T03:06:56.733Z,6.10
2018-04-13T03:09:25.164Z,6.10
2018-04-13T03:11:52.685Z,6.10
2018-04-13T03:14:20.316Z,6.10
2018-04-13T03:16:48.587Z,6.20
2018-04-13T03:19:16.102Z,6.20
2018-04-13T03:21:43.593Z,6.30
2018-04-13T03:24:11.098Z,6.30
2018-04-13T03:26:39.324Z,6.30
2018-04-13T03:29:07.950Z,6.30
2018-04-13T03:31:35.440Z,6.30
2018-04-13T03:34:02.968Z,6.30
2018-04-13T03:36:30.496Z,6.30
2018-04-13T03:38:58.072Z,6.40
2018-04-13T03:41:26.357Z,6.30
2018-04-13T03:43:54.828Z,6.30
2018-04-13T03:46:22.321Z,6.10
2018-04-13T03:48:49.897Z,6.00
2018-04-13T03:51:17.480Z,5.90
2018-04-13T03:53:45.800Z,5.40
2018-04-13T03:56:13.438Z,5.40
2018-04-13T03:58:41.751Z,5.50
2018-04-13T04:01:10.142Z,5.50
2018-04-13T04:03:37.722Z,5.50
2018-04-13T04:06:05.312Z,5.60
2018-04-13T04:08:32.836Z,5.70
2018-04-13T04:11:01.579Z,5.80
2018-04-13T04:13:29.181Z,5.70
2018-04-13T04:15:56.648Z,5.80
2018-04-13T04:18:25.005Z,5.80
2018-04-13T04:21:04.507Z,5.80
2018-04-13T04:23:43.841Z,5.80
2018-04-13T04:26:27.820Z,5.90
2018-04-13T04:28:55.378Z,5.90
2018-04-13T04:31:22.907Z,6.00
2018-04-13T04:33:50.413Z,6.00
2018-04-13T04:36:17.975Z,6.10
2018-04-13T04:38:46.198Z,6.10
2018-04-13T04:41:13.741Z,6.00
2018-04-13T04:43:41.301Z,6.00
2018-04-13T04:46:08.856Z,5.80
2018-04-13T04:48:37.201Z,5.80
2018-04-13T04:51:05.442Z,5.80
2018-04-13T04:53:32.938Z,5.80
2018-04-13T04:56:01.176Z,5.80
2018-04-13T04:58:28.655Z,5.80
2018-04-13T05:00:56.149Z,5.80
2018-04-13T05:03:23.668Z,5.90
2018-04-13T05:05:51.139Z,5.80
2018-04-13T05:08:19.438Z,5.70
2018-04-13T05:10:46.913Z,5.70
2018-04-13T05:13:14.428Z,5.80
2018-04-13T05:15:42.699Z,5.90
2018-04-13T05:18:10.168Z,5.90
2018-04-13T05:20:38.448Z,6.00
2018-04-13T05:23:05.938Z,6.00
2018-04-13T05:25:33.442Z,6.00
2018-04-13T05:28:03.430Z,6.00
2018-04-13T05:30:30.952Z,6.10
2018-04-13T05:32:58.438Z,6.20
2018-04-13T05:35:25.909Z,6.10
2018-04-13T05:37:53.404Z,6.20
2018-04-13T05:40:20.877Z,6.30
2018-04-13T05:45:40.261Z,6.20
2018-04-13T05:48:08.529Z,6.40
2018-04-13T05:50:36.003Z,6.40
2018-04-13T05:53:04.269Z,6.60
2018-04-13T05:55:32.508Z,6.70
2018-04-13T05:58:00.772Z,6.70
2018-04-13T06:00:28.257Z,6.70
2018-04-13T06:05:49.398Z,7.00
2018-04-13T06:08:16.901Z,6.90
2018-04-13T06:10:45.756Z,7.00
2018-04-13T06:13:13.993Z,7.30
2018-04-13T06:15:41.494Z,7.20
2018-04-13T06:18:09.731Z,7.40
2018-04-13T06:20:37.300Z,7.40
2018-04-13T06:23:04.794Z,7.50
2018-04-13T06:25:33.029Z,7.70
2018-04-13T06:28:00.533Z,7.70
2018-04-13T06:30:28.810Z,7.90
2018-04-13T06:32:56.288Z,7.90
2018-04-13T06:35:23.773Z,8.00
2018-04-13T06:37:51.281Z,8.10
2018-04-13T06:40:18.770Z,8.20
2018-04-13T06:42:46.288Z,8.40
2018-04-13T06:45:14.540Z,8.60
2018-04-13T06:47:42.042Z,8.60
2018-04-13T06:50:09.541Z,8.80
2018-04-13T06:52:37.014Z,9.00
2018-04-13T06:55:04.505Z,9.10
2018-04-13T06:57:32.742Z,9.40
2018-04-13T07:00:00.253Z,9.30
2018-04-13T07:02:27.764Z,9.40
2018-04-13T07:04:55.201Z,9.50
2018-04-13T07:07:22.700Z,9.70
2018-04-13T07:09:50.948Z,10.20
2018-04-13T07:12:18.449Z,10.20
2018-04-13T07:14:46.720Z,10.50
2018-04-13T07:17:14.992Z,10.60
2018-04-13T07:19:43.254Z,10.80
2018-04-13T07:22:10.729Z,10.70
2018-04-13T07:24:38.999Z,11.20
2018-04-13T07:27:06.524Z,11.20
2018-04-13T07:29:34.019Z,11.40
2018-04-13T07:32:02.261Z,11.70
2018-04-13T07:34:29.765Z,11.70
2018-04-13T07:36:58.004Z,12.00
2018-04-13T07:39:25.532Z,12.00
2018-04-13T07:41:53.765Z,12.20
2018-04-13T07:44:22.004Z,12.30
2018-04-13T07:46:49.493Z,12.30
2018-04-13T07:49:16.979Z,12.40
2018-04-13T07:51:44.478Z,12.50
2018-04-13T07:54:11.953Z,12.60
2018-04-13T07:56:39.460Z,12.70
2018-04-13T07:59:06.956Z,12.80
2018-04-13T08:01:34.491Z,12.90
2018-04-13T08:04:01.969Z,13.10
2018-04-13T08:06:29.441Z,13.10
2018-04-13T08:08:56.939Z,13.20
2018-04-13T08:11:25.196Z,13.40
2018-04-13T08:13:52.706Z,13.40
2018-04-13T08:16:20.188Z,13.50
2018-04-13T08:18:47.670Z,13.50
2018-04-13T08:21:15.180Z,13.60
2018-04-13T08:23:42.674Z,13.60
2018-04-13T08:26:10.157Z,13.70
2018-04-13T08:28:38.424Z,13.90
2018-04-13T08:31:05.922Z,13.90
2018-04-13T08:33:33.406Z,14.00
2018-04-13T08:36:00.901Z,14.00
2018-04-13T08:38:28.371Z,14.10
2018-04-13T08:40:56.638Z,14.20
2018-04-13T08:43:24.932Z,14.30
2018-04-13T08:45:52.394Z,14.30
2018-04-13T08:48:19.860Z,14.30
2018-04-13T08:50:47.385Z,14.30
2018-04-13T08:53:14.848Z,14.40
2018-04-13T08:55:43.117Z,14.40
2018-04-13T08:58:10.587Z,14.40
2018-04-13T09:00:38.862Z,14.70
2018-04-13T09:03:07.098Z,14.70
2018-04-13T09:05:34.588Z,14.70
2018-04-13T09:08:02.095Z,14.70
2018-04-13T09:10:29.564Z,14.70
2018-04-13T09:12:57.111Z,14.60
2018-04-13T09:15:25.326Z,14.60
2018-04-13T09:17:52.842Z,14.60
2018-04-13T09:20:20.338Z,14.70
2018-04-13T09:22:47.837Z,14.70
2018-04-13T09:25:16.069Z,14.60
2018-04-13T09:27:43.589Z,14.60
2018-04-13T09:30:11.069Z,14.60
2018-04-13T09:32:38.564Z,14.60
2018-04-13T09:35:06.036Z,14.60
2018-04-13T09:37:34.299Z,14.70
2018-04-13T09:40:02.576Z,14.60
2018-04-13T09:42:30.818Z,14.60
2018-04-13T09:44:58.315Z,14.60
2018-04-13T09:47:26.562Z,14.50
2018-04-13T09:49:54.061Z,14.50
2018-04-13T09:52:22.329Z,14.50
2018-04-13T09:54:50.562Z,14.40
2018-04-13T09:57:18.031Z,14.40
2018-04-13T09:59:45.529Z,14.50
2018-04-13T10:02:19.493Z,14.60
2018-04-13T10:04:46.980Z,14.60
2018-04-13T10:07:14.482Z,14.70
2018-04-13T10:09:41.977Z,14.70
2018-04-13T10:12:09.440Z,14.70
2018-04-13T10:14:36.954Z,14.80
2018-04-13T10:17:04.425Z,14.80
2018-04-13T10:19:31.925Z,14.80
2018-04-13T10:21:59.389Z,14.80
2018-04-13T10:24:27.660Z,14.90
2018-04-13T10:26:55.167Z,14.90
2018-04-13T10:29:23.419Z,14.90
2018-04-13T10:31:51.664Z,14.90
2018-04-13T10:34:19.278Z,14.90
2018-04-13T10:36:46.776Z,14.90
2018-04-13T10:39:14.245Z,14.90
2018-04-13T10:41:41.716Z,14.90
2018-04-13T10:44:09.986Z,15.00
2018-04-13T10:46:37.457Z,14.90
2018-04-13T10:49:05.704Z,15.10
2018-04-13T10:51:33.321Z,15.10
2018-04-13T10:54:00.790Z,15.10
2018-04-13T10:56:28.294Z,15.10
2018-04-13T10:58:55.768Z,15.20
2018-04-13T11:01:24.028Z,15.00
2018-04-13T11:03:51.520Z,15.00
2018-04-13T11:06:18.996Z,15.10
2018-04-13T11:08:46.498Z,15.20
2018-04-13T11:11:13.970Z,15.30
2018-04-13T11:13:42.247Z,15.40
2018-04-13T11:16:10.485Z,15.30
2018-04-13T11:18:37.980Z,15.30
2018-04-13T11:21:06.259Z,15.40
2018-04-13T11:23:34.501Z,15.40
2018-04-13T11:26:01.970Z,15.40
2018-04-13T11:28:29.586Z,15.40
2018-04-13T11:31:01.624Z,15.40
2018-04-13T11:33:29.203Z,15.40
2018-04-13T11:35:56.636Z,15.50
2018-04-13T11:38:24.897Z,15.60
2018-04-13T11:40:52.375Z,15.50
2018-04-13T11:43:20.641Z,15.70
2018-04-13T11:45:48.900Z,15.60
2018-04-13T11:48:16.372Z,15.60
2018-04-13T11:50:43.864Z,15.70
2018-04-13T11:53:11.335Z,15.80
2018-04-13T11:55:38.840Z,15.70
2018-04-13T11:58:06.312Z,15.80
2018-04-13T12:00:34.555Z,15.70
2018-04-13T12:03:02.054Z,15.70
2018-04-13T12:05:30.324Z,15.60
2018-04-13T12:07:58.585Z,15.60
2018-04-13T12:10:26.068Z,15.50
2018-04-13T12:12:54.332Z,15.50
2018-04-13T12:15:22.568Z,15.60
2018-04-13T12:17:50.073Z,15.60
2018-04-13T12:20:18.332Z,15.50
2018-04-13T12:22:45.810Z,15.50
2018-04-13T12:25:14.078Z,15.50
2018-04-13T12:27:42.321Z,15.70
2018-04-13T12:30:09.824Z,15.60
2018-04-13T12:32:38.073Z,15.50
2018-04-13T12:35:05.599Z,15.40
2018-04-13T12:37:33.073Z,15.50
2018-04-13T12:40:00.554Z,15.60
2018-04-13T12:42:28.050Z,15.60
2018-04-13T12:44:55.548Z,15.60
2018-04-13T12:47:23.029Z,15.60
2018-04-13T12:49:50.553Z,15.50
2018-04-13T12:52:18.061Z,15.60
2018-04-13T12:54:46.488Z,15.50
2018-04-13T12:57:14.576Z,15.50
2018-04-13T12:59:42.057Z,15.50
2018-04-13T13:02:09.589Z,15.60
2018-04-13T13:04:37.072Z,15.50
2018-04-13T13:07:04.569Z,15.40
2018-04-13T13:09:32.041Z,15.40
2018-04-13T13:11:59.553Z,15.50
2018-04-13T13:14:27.028Z,15.60
2018-04-13T13:16:55.270Z,15.50
2018-04-13T13:19:22.802Z,15.50
2018-04-13T13:21:50.280Z,15.60
2018-04-13T13:24:17.777Z,15.60
2018-04-13T13:26:46.015Z,15.60
2018-04-13T13:29:13.533Z,15.60
2018-04-13T13:31:41.063Z,15.70
2018-04-13T13:34:08.575Z,15.70
2018-04-13T13:36:36.049Z,15.90
2018-04-13T13:39:03.520Z,15.90
2018-04-13T13:41:31.016Z,16.00
2018-04-13T13:43:58.487Z,16.00
2018-04-13T13:46:25.980Z,16.10
2018-04-13T13:48:53.449Z,16.10
2018-04-13T13:51:20.973Z,16.20
2018-04-13T13:53:48.448Z,16.30
2018-04-13T13:56:15.916Z,16.40
2018-04-13T13:58:43.422Z,16.50
2018-04-13T14:01:10.916Z,16.40
2018-04-13T14:03:38.415Z,16.40
2018-04-13T14:06:05.881Z,16.30
2018-04-13T14:08:34.146Z,16.30
2018-04-13T14:11:01.661Z,16.20
2018-04-13T14:13:29.129Z,16.20
2018-04-13T14:15:56.605Z,16.20
2018-04-13T14:18:24.124Z,16.10
2018-04-13T14:20:51.598Z,16.10
2018-04-13T14:23:19.064Z,16.00
2018-04-13T14:25:46.568Z,16.00
2018-04-13T14:28:14.813Z,15.90
2018-04-13T14:30:42.293Z,15.90
2018-04-13T14:33:10.563Z,16.10
2018-04-13T14:35:38.034Z,16.10
2018-04-13T14:38:06.305Z,16.10
2018-04-13T14:40:34.545Z,16.20
2018-04-13T14:43:02.042Z,16.10
2018-04-13T14:45:30.314Z,16.20
2018-04-13T14:47:58.582Z,16.20
2018-04-13T14:50:26.081Z,16.20
2018-04-13T14:52:53.597Z,16.10
2018-04-13T14:55:21.081Z,16.10
2018-04-13T14:57:49.325Z,16.10
2018-04-13T15:00:16.832Z,16.10
2018-04-13T15:02:44.310Z,16.20
2018-04-13T15:05:11.785Z,16.20
2018-04-13T15:07:39.289Z,16.20
2018-04-13T15:10:07.558Z,16.20
2018-04-13T15:12:35.797Z,16.20
2018-04-13T15:15:04.074Z,16.20
2018-04-13T15:17:31.572Z,16.20
2018-04-13T15:19:59.812Z,16.10
2018-04-13T15:22:27.325Z,16.00
2018-04-13T15:24:54.797Z,16.10
2018-04-13T15:27:22.305Z,16.10
2018-04-13T15:29:49.816Z,16.10
2018-04-13T15:32:17.298Z,16.10
2018-04-13T15:34:44.793Z,16.10
2018-04-13T15:37:13.037Z,16.00
2018-04-13T15:39:40.542Z,16.00
2018-04-13T15:42:08.941Z,15.90
2018-04-13T15:44:36.453Z,15.90
2018-04-13T15:47:04.878Z,15.90
2018-04-13T15:49:32.396Z,15.90
2018-04-13T15:51:59.904Z,15.90
2018-04-13T15:54:27.392Z,15.90
2018-04-13T15:56:55.015Z,15.90
2018-04-13T15:59:22.492Z,15.80
2018-04-13T16:01:49.990Z,15.80
2018-04-13T16:04:17.473Z,15.90
2018-04-13T16:06:45.758Z,15.70
2018-04-13T16:09:13.287Z,15.70
2018-04-13T16:11:40.767Z,15.90
2018-04-13T16:14:09.038Z,15.70
2018-04-13T16:16:37.285Z,15.80
2018-04-13T16:19:04.802Z,15.80
2018-04-13T16:21:32.308Z,15.80
2018-04-13T16:23:59.780Z,15.70
2018-04-13T16:26:28.058Z,15.50
2018-04-13T16:28:56.305Z,15.60
2018-04-13T16:31:23.785Z,15.60
2018-04-13T16:33:52.057Z,15.50
2018-04-13T16:36:20.348Z,15.50
2018-04-13T16:38:48.597Z,15.60
2018-04-13T16:41:16.070Z,15.60
2018-04-13T16:43:43.568Z,15.60
2018-04-13T16:46:11.052Z,15.60
2018-04-13T16:48:38.574Z,15.50
2018-04-13T16:51:06.050Z,15.40
2018-04-13T16:53:33.537Z,15.40
2018-04-13T16:56:01.859Z,15.30
2018-04-13T16:58:29.312Z,15.30
2018-04-13T17:00:57.581Z,15.20
2018-04-13T17:03:25.849Z,15.10
2018-04-13T17:05:54.146Z,15.20
2018-04-13T17:08:22.376Z,15.20
2018-04-13T17:10:49.894Z,15.10
2018-04-13T17:13:17.376Z,15.10
2018-04-13T17:15:44.853Z,15.10
2018-04-13T17:18:12.364Z,15.10
2018-04-13T17:20:39.863Z,15.10
2018-04-13T17:23:07.376Z,15.00
2018-04-13T17:25:34.878Z,15.00
2018-04-13T17:28:02.358Z,15.10
2018-04-13T17:30:29.861Z,14.90
2018-04-13T17:32:57.345Z,14.90
2018-04-13T17:35:24.849Z,14.90
2018-04-13T17:37:53.100Z,14.70
2018-04-13T17:40:20.601Z,14.80
2018-04-13T17:42:48.091Z,14.70
2018-04-13T17:45:15.605Z,14.60
2018-04-13T17:47:43.849Z,14.60
2018-04-13T17:50:11.328Z,14.60
2018-04-13T17:52:38.835Z,14.70
2018-04-13T17:55:06.308Z,14.60
2018-04-13T17:57:33.808Z,14.50
2018-04-13T18:00:02.093Z,14.40
2018-04-13T18:02:30.328Z,14.40
2018-04-13T18:04:57.810Z,14.40
2018-04-13T18:07:25.357Z,14.40
2018-04-13T18:09:52.890Z,14.20
2018-04-13T18:12:20.365Z,14.20
2018-04-13T18:14:47.864Z,14.00
2018-04-13T18:17:16.121Z,13.80
2018-04-13T18:19:43.624Z,13.80
2018-04-13T18:22:11.104Z,13.70
2018-04-13T18:24:38.646Z,13.80
2018-04-13T18:27:06.152Z,13.80
2018-04-13T18:29:33.663Z,13.80
2018-04-13T18:32:01.174Z,13.80
2018-04-13T18:34:29.456Z,13.60
2018-04-13T18:36:56.931Z,13.60
2018-04-13T18:39:25.287Z,13.40
2018-04-13T18:41:52.721Z,13.40
2018-04-13T18:44:20.197Z,13.40
2018-04-13T18:46:47.715Z,13.30
2018-04-13T18:49:15.231Z,13.30
2018-04-13T18:51:43.483Z,13.20
2018-04-13T18:54:10.981Z,13.20
2018-04-13T18:56:38.468Z,13.10
2018-04-13T18:59:05.964Z,13.20
2018-04-13T19:01:33.744Z,13.10
2018-04-13T19:04:01.998Z,13.10
2018-04-13T19:06:29.476Z,13.10
2018-04-13T19:08:57.748Z,13.00
2018-04-13T19:11:25.221Z,13.00
2018-04-13T19:13:53.489Z,12.90
2018-04-13T19:16:21.875Z,12.90
2018-04-13T19:18:50.457Z,12.90
2018-04-13T19:21:18.699Z,12.90
2018-04-13T19:23:46.171Z,12.80
2018-04-13T19:26:13.745Z,12.80
2018-04-13T19:28:41.164Z,12.80
2018-04-13T19:31:08.660Z,12.90
2018-04-13T19:33:36.910Z,12.90
2018-04-13T19:36:04.405Z,12.90
2018-04-13T19:38:32.645Z,12.80
2018-04-13T19:41:00.165Z,12.70
2018-04-13T19:43:27.652Z,12.70
2018-04-13T19:45:56.409Z,12.60
2018-04-13T19:48:23.918Z,12.50
2018-04-13T19:50:51.401Z,12.50
2018-04-13T19:53:19.670Z,12.30
2018-04-13T19:55:47.920Z,12.30
2018-04-13T19:58:15.422Z,12.30
2018-04-13T20:00:42.921Z,12.20
2018-04-13T20:03:10.403Z,12.30
2018-04-13T20:05:37.899Z,12.40
2018-04-13T20:08:05.374Z,12.30
2018-04-13T20:10:32.869Z,12.20
2018-04-13T20:13:00.356Z,12.10
2018-04-13T20:15:28.616Z,12.10
2018-04-13T20:17:56.091Z,12.10
2018-04-13T20:20:24.349Z,11.90
2018-04-13T20:22:51.829Z,11.90
2018-04-13T20:25:20.090Z,12.10
2018-04-13T20:27:47.568Z,12.10
2018-04-13T20:30:15.823Z,12.00
2018-04-13T20:32:43.342Z,12.00
2018-04-13T20:35:10.817Z,12.00
2018-04-13T20:37:38.332Z,11.90
2018-04-13T20:40:05.817Z,11.60
2018-04-13T20:42:33.745Z,11.50
2018-04-13T20:45:01.991Z,11.40
2018-04-13T20:47:29.472Z,11.40
2018-04-13T20:49:58.730Z,11.40
2018-04-13T20:52:26.204Z,11.40
2018-04-13T20:54:53.705Z,11.30
2018-04-13T20:57:21.197Z,11.20
2018-04-13T20:59:48.697Z,11.30
2018-04-13T21:02:16.177Z,11.20
2018-04-13T21:04:43.666Z,11.20
2018-04-13T21:07:11.200Z,11.10
2018-04-13T21:09:39.588Z,11.10
2018-04-13T21:12:07.109Z,11.10
2018-04-13T21:14:36.719Z,11.00
2018-04-13T21:17:05.006Z,11.10
2018-04-13T21:19:33.265Z,11.00
2018-04-13T21:22:00.797Z,11.00
2018-04-13T21:24:28.254Z,11.00
2018-04-13T21:26:55.745Z,10.90
2018-04-13T21:29:23.238Z,10.90
2018-04-13T21:31:50.716Z,10.90
2018-04-13T21:34:18.219Z,10.90
2018-04-13T21:36:46.472Z,10.70
2018-04-13T21:39:13.969Z,10.70
2018-04-13T21:41:42.512Z,10.80
2018-04-13T21:44:09.997Z,10.80
2018-04-13T21:46:38.613Z,10.80
2018-04-13T21:49:06.090Z,10.70
2018-04-13T21:51:33.908Z,10.70
2018-04-13T21:54:02.164Z,10.60
2018-04-13T21:56:29.646Z,10.50
2018-04-13T21:58:57.921Z,10.50
2018-04-13T22:01:26.177Z,10.50
2018-04-13T22:03:53.674Z,10.40
2018-04-13T22:06:21.155Z,10.40
2018-04-13T22:08:48.997Z,10.40
2018-04-13T22:11:17.242Z,10.50
2018-04-13T22:13:46.577Z,10.50
2018-04-13T22:16:14.076Z,10.50
2018-04-13T22:18:41.552Z,10.40
2018-04-13T22:21:09.044Z,10.30
2018-04-13T22:23:37.288Z,10.10
2018-04-13T22:26:04.785Z,10.20
2018-04-13T22:28:32.269Z,10.10
2018-04-13T22:31:00.100Z,10.20
2018-04-13T22:33:28.341Z,10.20
2018-04-13T22:35:55.815Z,10.20
2018-04-13T22:38:23.311Z,10.20
2018-04-13T22:40:50.796Z,10.20
2018-04-13T22:43:18.289Z,10.20
2018-04-13T22:45:45.912Z,10.20
2018-04-13T22:48:13.428Z,10.20
2018-04-13T22:50:41.674Z,10.20
2018-04-13T22:53:09.155Z,10.20
2018-04-13T22:55:37.422Z,10.20
2018-04-13T22:58:04.938Z,10.10
2018-04-13T23:00:32.440Z,10.00
2018-04-13T23:02:59.921Z,10.00
2018-04-13T23:05:29.058Z,10.00
2018-04-13T23:07:56.524Z,9.90
2018-04-13T23:10:24.068Z,10.00
2018-04-13T23:12:51.575Z,10.00
2018-04-13T23:15:19.899Z,10.10
2018-04-13T23:17:49.485Z,10.00
2018-04-13T23:20:16.968Z,10.00
2018-04-13T23:22:44.756Z,10.00
2018-04-13T23:25:12.262Z,10.00
2018-04-13T23:27:40.533Z,10.20
2018-04-13T23:30:08.793Z,10.30
2018-04-13T23:32:40.804Z,10.20
2018-04-13T23:35:09.320Z,10.20
2018-04-13T23:37:36.840Z,10.20
2018-04-13T23:40:04.334Z,10.10
2018-04-13T23:42:31.843Z,10.00
2018-04-13T23:44:59.322Z,9.80
2018-04-13T23:47:26.833Z,9.70
2018-04-13T23:49:54.314Z,9.80
2018-04-13T23:52:21.804Z,9.90
2018-04-13T23:54:49.329Z,10.00
2018-04-13T23:57:17.574Z,10.20
2018-04-13T23:59:45.086Z,10.20
